sensor_id;sensor_type;location;lat;lon;timestamp;pressure;altitude;pressure_sealevel;temperature;humidity
72855;BME280;60991;51.278;22.550;2023-04-29T00:01:13;99242.84;;;9.24;47.56
72855;BME280;60991;51.278;22.550;2023-04-29T00:02:44;99250.66;;;9.19;47.25
72855;BME280;60991;51.278;22.550;2023-04-29T00:04:14;99252.16;;;9.26;47.03
72855;BME280;60991;51.278;22.550;2023-04-29T00:05:44;99249.81;;;9.30;47.56
72855;BME280;60991;51.278;22.550;2023-04-29T00:07:14;99250.06;;;9.40;47.18
72855;BME280;60991;51.278;22.550;2023-04-29T00:08:45;99253.97;;;9.37;47.07
72855;BME280;60991;51.278;22.550;2023-04-29T00:10:15;99252.03;;;9.33;46.88
72855;BME280;60991;51.278;22.550;2023-04-29T00:11:45;99249.13;;;9.34;47.07
72855;BME280;60991;51.278;22.550;2023-04-29T00:13:16;99249.25;;;9.28;47.52
72855;BME280;60991;51.278;22.550;2023-04-29T00:14:46;99246.06;;;9.26;47.03
72855;BME280;60991;51.278;22.550;2023-04-29T00:16:16;99245.47;;;9.35;47.35
72855;BME280;60991;51.278;22.550;2023-04-29T00:17:46;99247.53;;;9.33;47.17
72855;BME280;60991;51.278;22.550;2023-04-29T00:19:17;99251.78;;;9.46;47.34
72855;BME280;60991;51.278;22.550;2023-04-29T00:20:47;99242.88;;;9.52;46.79
72855;BME280;60991;51.278;22.550;2023-04-29T00:22:17;99241.38;;;9.56;46.65
72855;BME280;60991;51.278;22.550;2023-04-29T00:23:47;99241.25;;;9.63;46.34
72855;BME280;60991;51.278;22.550;2023-04-29T00:25:17;99238.69;;;9.68;46.46
72855;BME280;60991;51.278;22.550;2023-04-29T00:26:48;99247.00;;;9.71;46.61
72855;BME280;60991;51.278;22.550;2023-04-29T00:28:18;99236.63;;;9.70;46.77
72855;BME280;60991;51.278;22.550;2023-04-29T00:29:48;99238.56;;;9.75;46.39
72855;BME280;60991;51.278;22.550;2023-04-29T00:31:18;99229.13;;;9.79;46.35
72855;BME280;60991;51.278;22.550;2023-04-29T00:32:49;99234.78;;;9.70;46.71
72855;BME280;60991;51.278;22.550;2023-04-29T00:34:19;99236.84;;;9.68;46.63
72855;BME280;60991;51.278;22.550;2023-04-29T00:35:49;99236.38;;;9.71;46.32
72855;BME280;60991;51.278;22.550;2023-04-29T00:37:19;99230.91;;;9.61;46.89
72855;BME280;60991;51.278;22.550;2023-04-29T00:38:50;99238.06;;;9.49;47.08
72855;BME280;60991;51.278;22.550;2023-04-29T00:40:20;99234.13;;;9.52;47.13
72855;BME280;60991;51.278;22.550;2023-04-29T00:41:51;99230.72;;;9.40;47.42
72855;BME280;60991;51.278;22.550;2023-04-29T00:43:21;99237.25;;;9.49;46.96
72855;BME280;60991;51.278;22.550;2023-04-29T00:44:51;99232.63;;;9.56;46.82
72855;BME280;60991;51.278;22.550;2023-04-29T00:46:21;99232.50;;;9.62;46.60
72855;BME280;60991;51.278;22.550;2023-04-29T00:47:52;99232.00;;;9.65;46.79
72855;BME280;60991;51.278;22.550;2023-04-29T00:49:22;99232.00;;;9.65;46.76
72855;BME280;60991;51.278;22.550;2023-04-29T00:50:52;99221.19;;;9.67;46.70
72855;BME280;60991;51.278;22.550;2023-04-29T00:52:22;99223.25;;;9.65;46.80
72855;BME280;60991;51.278;22.550;2023-04-29T00:53:53;99221.19;;;9.67;46.67
72855;BME280;60991;51.278;22.550;2023-04-29T00:55:23;99219.56;;;9.66;47.03
72855;BME280;60991;51.278;22.550;2023-04-29T00:56:54;99223.25;;;9.65;47.20
72855;BME280;60991;51.278;22.550;2023-04-29T00:58:25;99229.06;;;9.62;46.90
72855;BME280;60991;51.278;22.550;2023-04-29T00:59:58;99219.25;;;9.62;47.04
72855;BME280;60991;51.278;22.550;2023-04-29T01:01:29;99222.47;;;9.64;46.66
72855;BME280;60991;51.278;22.550;2023-04-29T01:02:59;99227.53;;;9.66;46.76
72855;BME280;60991;51.278;22.550;2023-04-29T01:04:30;99226.16;;;9.63;46.94
72855;BME280;60991;51.278;22.550;2023-04-29T01:06:23;99228.13;;;9.56;46.67
72855;BME280;60991;51.278;22.550;2023-04-29T01:08:28;99231.13;;;9.60;46.74
72855;BME280;60991;51.278;22.550;2023-04-29T01:10:09;99227.44;;;9.61;46.90
72855;BME280;60991;51.278;22.550;2023-04-29T01:12:10;99238.28;;;9.59;47.30
72855;BME280;60991;51.278;22.550;2023-04-29T01:13:49;99226.28;;;9.57;46.77
72855;BME280;60991;51.278;22.550;2023-04-29T01:15:27;99229.41;;;9.54;47.08
72855;BME280;60991;51.278;22.550;2023-04-29T01:17:04;99227.22;;;9.51;47.08
72855;BME280;60991;51.278;22.550;2023-04-29T01:18:41;99230.34;;;9.48;47.15
72855;BME280;60991;51.278;22.550;2023-04-29T01:20:13;99238.78;;;9.45;47.36
72855;BME280;60991;51.278;22.550;2023-04-29T01:21:45;99234.16;;;9.40;47.71
72855;BME280;60991;51.278;22.550;2023-04-29T01:23:15;99236.25;;;9.38;47.50
72855;BME280;60991;51.278;22.550;2023-04-29T01:24:46;99230.81;;;9.33;47.91
72855;BME280;60991;51.278;22.550;2023-04-29T01:26:16;99232.09;;;9.30;47.77
72855;BME280;60991;51.278;22.550;2023-04-29T01:29:39;99229.59;;;9.24;48.12
72855;BME280;60991;51.278;22.550;2023-04-29T01:31:27;99232.94;;;9.19;48.22
72855;BME280;60991;51.278;22.550;2023-04-29T01:33:16;99232.81;;;9.14;48.39
72855;BME280;60991;51.278;22.550;2023-04-29T01:35:22;99227.75;;;9.13;48.79
72855;BME280;60991;51.278;22.550;2023-04-29T01:37:13;99218.41;;;9.10;48.72
72855;BME280;60991;51.278;22.550;2023-04-29T01:38:55;99218.66;;;9.09;48.86
72855;BME280;60991;51.278;22.550;2023-04-29T01:40:33;99220.63;;;9.01;48.68
72855;BME280;60991;51.278;22.550;2023-04-29T01:42:47;99220.03;;;8.99;48.71
72855;BME280;60991;51.278;22.550;2023-04-29T01:44:22;99215.31;;;9.01;48.32
72855;BME280;60991;51.278;22.550;2023-04-29T01:45:55;99217.63;;;8.98;48.42
72855;BME280;60991;51.278;22.550;2023-04-29T01:47:26;99218.66;;;8.97;48.50
72855;BME280;60991;51.278;22.550;2023-04-29T01:48:56;99210.13;;;8.95;48.65
72855;BME280;60991;51.278;22.550;2023-04-29T01:50:26;99222.13;;;8.97;48.61
72855;BME280;60991;51.278;22.550;2023-04-29T01:51:57;99211.53;;;8.97;48.84
72855;BME280;60991;51.278;22.550;2023-04-29T01:53:27;99209.44;;;8.99;49.02
72855;BME280;60991;51.278;22.550;2023-04-29T01:54:57;99208.19;;;9.02;48.20
72855;BME280;60991;51.278;22.550;2023-04-29T01:56:27;99212.22;;;9.05;48.20
72855;BME280;60991;51.278;22.550;2023-04-29T01:57:57;99212.56;;;9.08;48.48
72855;BME280;60991;51.278;22.550;2023-04-29T01:59:30;99207.28;;;9.08;48.48
72855;BME280;60991;51.278;22.550;2023-04-29T02:01:00;99206.25;;;9.09;48.43
72855;BME280;60991;51.278;22.550;2023-04-29T02:02:30;99207.50;;;9.07;48.87
72855;BME280;60991;51.278;22.550;2023-04-29T02:04:00;99204.63;;;9.08;48.66
72855;BME280;60991;51.278;22.550;2023-04-29T02:05:31;99207.59;;;9.12;48.48
72855;BME280;60991;51.278;22.550;2023-04-29T02:07:01;99211.03;;;9.12;48.57
72855;BME280;60991;51.278;22.550;2023-04-29T02:08:31;99214.28;;;9.14;48.19
72855;BME280;60991;51.278;22.550;2023-04-29T02:10:02;99209.19;;;9.13;48.19
72855;BME280;60991;51.278;22.550;2023-04-29T02:11:32;99213.13;;;9.10;48.77
72855;BME280;60991;51.278;22.550;2023-04-29T02:13:02;99202.28;;;9.12;48.47
72855;BME280;60991;51.278;22.550;2023-04-29T02:14:32;99213.22;;;9.15;48.26
72855;BME280;60991;51.278;22.550;2023-04-29T02:16:10;99209.31;;;9.18;47.99
72855;BME280;60991;51.278;22.550;2023-04-29T02:17:40;99204.81;;;9.18;48.60
72855;BME280;60991;51.278;22.550;2023-04-29T02:19:10;99203.00;;;9.19;48.13
72855;BME280;60991;51.278;22.550;2023-04-29T02:20:41;99208.28;;;9.19;48.34
72855;BME280;60991;51.278;22.550;2023-04-29T02:22:11;99198.16;;;9.16;48.43
72855;BME280;60991;51.278;22.550;2023-04-29T02:23:42;99198.16;;;9.16;48.25
72855;BME280;60991;51.278;22.550;2023-04-29T02:25:12;99201.84;;;9.15;48.51
72855;BME280;60991;51.278;22.550;2023-04-29T02:26:42;99203.69;;;9.14;48.30
72855;BME280;60991;51.278;22.550;2023-04-29T02:28:12;99202.28;;;9.12;48.31
72855;BME280;60991;51.278;22.550;2023-04-29T02:29:42;99197.81;;;9.12;48.35
72855;BME280;60991;51.278;22.550;2023-04-29T02:31:13;99195.16;;;9.12;48.82
72855;BME280;60991;51.278;22.550;2023-04-29T02:32:43;99198.28;;;9.09;48.76
72855;BME280;60991;51.278;22.550;2023-04-29T02:34:13;99201.41;;;9.06;48.84
72855;BME280;60991;51.278;22.550;2023-04-29T02:35:43;99195.88;;;9.08;48.61
72855;BME280;60991;51.278;22.550;2023-04-29T02:37:14;99198.28;;;9.09;48.79
72855;BME280;60991;51.278;22.550;2023-04-29T02:38:44;99200.94;;;9.09;48.66
72855;BME280;60991;51.278;22.550;2023-04-29T02:40:14;99196.09;;;9.06;48.65
72855;BME280;60991;51.278;22.550;2023-04-29T02:41:44;99183.78;;;9.00;48.76
72855;BME280;60991;51.278;22.550;2023-04-29T02:43:15;99188.28;;;8.99;48.39
72855;BME280;60991;51.278;22.550;2023-04-29T02:44:45;99185.84;;;8.98;48.79
72855;BME280;60991;51.278;22.550;2023-04-29T02:46:15;99189.75;;;8.95;48.86
72855;BME280;60991;51.278;22.550;2023-04-29T02:47:46;99182.28;;;8.92;48.62
72855;BME280;60991;51.278;22.550;2023-04-29T02:49:16;99184.13;;;8.92;48.96
72855;BME280;60991;51.278;22.550;2023-04-29T02:50:46;99185.66;;;8.88;49.20
72855;BME280;60991;51.278;22.550;2023-04-29T02:52:16;99179.41;;;8.82;49.22
72855;BME280;60991;51.278;22.550;2023-04-29T02:53:46;99180.69;;;8.80;49.58
72855;BME280;60991;51.278;22.550;2023-04-29T02:55:17;99187.00;;;8.79;49.62
72855;BME280;60991;51.278;22.550;2023-04-29T02:56:47;99181.13;;;8.77;49.36
72855;BME280;60991;51.278;22.550;2023-04-29T02:58:17;99178.72;;;8.75;49.99
72855;BME280;60991;51.278;22.550;2023-04-29T02:59:47;99187.91;;;8.73;49.70
72855;BME280;60991;51.278;22.550;2023-04-29T03:01:17;99179.44;;;8.71;49.83
72855;BME280;60991;51.278;22.550;2023-04-29T03:02:48;99180.69;;;8.68;49.95
72855;BME280;60991;51.278;22.550;2023-04-29T03:04:18;99173.44;;;8.63;49.94
72855;BME280;60991;51.278;22.550;2023-04-29T03:05:48;99180.78;;;8.61;50.03
72855;BME280;60991;51.278;22.550;2023-04-29T03:07:18;99177.00;;;8.57;49.88
72855;BME280;60991;51.278;22.550;2023-04-29T03:08:48;99178.25;;;8.55;50.65
72855;BME280;60991;51.278;22.550;2023-04-29T03:10:19;99183.22;;;8.51;50.36
72855;BME280;60991;51.278;22.550;2023-04-29T03:11:49;99186.09;;;8.50;50.82
72855;BME280;60991;51.278;22.550;2023-04-29T03:13:19;99180.44;;;8.46;50.42
72855;BME280;60991;51.278;22.550;2023-04-29T03:14:49;99187.00;;;8.44;50.44
72855;BME280;60991;51.278;22.550;2023-04-29T03:16:20;99186.63;;;8.40;50.87
72855;BME280;60991;51.278;22.550;2023-04-29T03:17:50;99184.00;;;8.40;51.17
72855;BME280;60991;51.278;22.550;2023-04-29T03:19:21;99187.66;;;8.39;51.14
72855;BME280;60991;51.278;22.550;2023-04-29T03:20:51;99184.66;;;8.36;50.88
72855;BME280;60991;51.278;22.550;2023-04-29T03:22:21;99183.88;;;8.35;51.14
72855;BME280;60991;51.278;22.550;2023-04-29T03:23:51;99187.97;;;8.31;51.00
72855;BME280;60991;51.278;22.550;2023-04-29T03:25:21;99184.75;;;8.29;51.70
72855;BME280;60991;51.278;22.550;2023-04-29T03:26:52;99185.44;;;8.24;51.07
72855;BME280;60991;51.278;22.550;2023-04-29T03:28:22;99192.56;;;8.24;50.81
72855;BME280;60991;51.278;22.550;2023-04-29T03:29:52;99193.13;;;8.26;51.11
72855;BME280;60991;51.278;22.550;2023-04-29T03:31:22;99192.56;;;8.24;51.47
72855;BME280;60991;51.278;22.550;2023-04-29T03:32:53;99197.25;;;8.22;51.42
72855;BME280;60991;51.278;22.550;2023-04-29T03:34:23;99197.25;;;8.22;51.47
72855;BME280;60991;51.278;22.550;2023-04-29T03:35:53;99191.97;;;8.22;51.40
72855;BME280;60991;51.278;22.550;2023-04-29T03:37:23;99192.56;;;8.24;51.14
72855;BME280;60991;51.278;22.550;2023-04-29T03:38:54;99195.66;;;8.21;51.81
72855;BME280;60991;51.278;22.550;2023-04-29T03:40:24;99193.00;;;8.21;51.76
72855;BME280;60991;51.278;22.550;2023-04-29T03:41:54;99196.47;;;8.21;51.39
72855;BME280;60991;51.278;22.550;2023-04-29T03:43:24;99193.00;;;8.21;51.58
72855;BME280;60991;51.278;22.550;2023-04-29T03:44:55;99197.03;;;8.23;51.94
72855;BME280;60991;51.278;22.550;2023-04-29T03:46:26;99197.84;;;8.24;52.09
72855;BME280;60991;51.278;22.550;2023-04-29T03:47:56;99189.91;;;8.24;51.97
72855;BME280;60991;51.278;22.550;2023-04-29T03:49:26;99189.69;;;8.25;52.53
72855;BME280;60991;51.278;22.550;2023-04-29T03:50:56;99187.41;;;8.29;51.78
72855;BME280;60991;51.278;22.550;2023-04-29T03:52:26;99194.53;;;8.28;52.02
72855;BME280;60991;51.278;22.550;2023-04-29T03:53:57;99194.53;;;8.28;52.05
72855;BME280;60991;51.278;22.550;2023-04-29T03:55:27;99201.81;;;8.33;52.26
72855;BME280;60991;51.278;22.550;2023-04-29T03:56:57;99194.09;;;8.31;52.40
72855;BME280;60991;51.278;22.550;2023-04-29T03:58:28;99203.19;;;8.36;52.38
72855;BME280;60991;51.278;22.550;2023-04-29T03:59:58;99199.06;;;8.40;51.80
72855;BME280;60991;51.278;22.550;2023-04-29T04:01:28;99201.25;;;8.43;52.17
72855;BME280;60991;51.278;22.550;2023-04-29T04:02:58;99199.41;;;8.43;52.02
72855;BME280;60991;51.278;22.550;2023-04-29T04:04:28;99202.63;;;8.45;52.43
72855;BME280;60991;51.278;22.550;2023-04-29T04:05:59;99204.03;;;8.48;52.63
72855;BME280;60991;51.278;22.550;2023-04-29T04:07:29;99203.81;;;8.49;52.15
72855;BME280;60991;51.278;22.550;2023-04-29T04:08:59;99201.50;;;8.53;51.92
72855;BME280;60991;51.278;22.550;2023-04-29T04:10:29;99203.56;;;8.51;52.28
72855;BME280;60991;51.278;22.550;2023-04-29T04:11:59;99192.19;;;8.50;52.75
72855;BME280;60991;51.278;22.550;2023-04-29T04:13:30;99198.06;;;8.52;52.72
72855;BME280;60991;51.278;22.550;2023-04-29T04:15:00;99196.78;;;8.55;52.18
72855;BME280;60991;51.278;22.550;2023-04-29T04:16:30;99203.69;;;8.56;51.94
72855;BME280;60991;51.278;22.550;2023-04-29T04:18:00;99201.50;;;8.53;51.91
72855;BME280;60991;51.278;22.550;2023-04-29T04:19:30;99203.09;;;8.54;52.54
72855;BME280;60991;51.278;22.550;2023-04-29T04:21:05;99203.44;;;8.57;52.15
72855;BME280;60991;51.278;22.550;2023-04-29T04:22:35;99196.09;;;8.59;51.88
72855;BME280;60991;51.278;22.550;2023-04-29T04:24:06;99191.97;;;8.63;52.06
72855;BME280;60991;51.278;22.550;2023-04-29T04:25:36;99190.69;;;8.66;51.53
72855;BME280;60991;51.278;22.550;2023-04-29T04:27:06;99194.50;;;8.70;51.84
72855;BME280;60991;51.278;22.550;2023-04-29T04:28:36;99191.84;;;8.70;52.28
72855;BME280;60991;51.278;22.550;2023-04-29T04:30:07;99191.06;;;8.70;52.45
72855;BME280;60991;51.278;22.550;2023-04-29T04:31:37;99190.34;;;8.74;51.48
72855;BME280;60991;51.278;22.550;2023-04-29T04:33:08;99191.94;;;8.75;51.77
72855;BME280;60991;51.278;22.550;2023-04-29T04:34:38;99184.81;;;8.76;52.23
72855;BME280;60991;51.278;22.550;2023-04-29T04:36:08;99192.31;;;8.79;51.96
72855;BME280;60991;51.278;22.550;2023-04-29T04:37:38;99192.88;;;8.81;51.88
72855;BME280;60991;51.278;22.550;2023-04-29T04:39:08;99192.66;;;8.82;52.60
72855;BME280;60991;51.278;22.550;2023-04-29T04:40:42;99188.41;;;8.81;51.92
72855;BME280;60991;51.278;22.550;2023-04-29T04:42:13;99187.72;;;8.86;51.90
72855;BME280;60991;51.278;22.550;2023-04-29T04:43:43;99184.38;;;8.90;51.88
72855;BME280;60991;51.278;22.550;2023-04-29T04:45:13;99182.06;;;8.94;51.75
72855;BME280;60991;51.278;22.550;2023-04-29T04:46:43;99177.91;;;8.98;52.30
72855;BME280;60991;51.278;22.550;2023-04-29T04:48:14;99179.06;;;9.02;51.65
72855;BME280;60991;51.278;22.550;2023-04-29T04:49:44;99170.88;;;9.03;51.97
72855;BME280;60991;51.278;22.550;2023-04-29T04:51:14;99180.78;;;9.08;52.13
72855;BME280;60991;51.278;22.550;2023-04-29T04:52:44;99178.69;;;9.10;52.09
72855;BME280;60991;51.278;22.550;2023-04-29T04:54:14;99185.13;;;9.14;51.90
72855;BME280;60991;51.278;22.550;2023-04-29T04:55:45;99175.34;;;9.15;51.97
72855;BME280;60991;51.278;22.550;2023-04-29T04:57:15;99175.34;;;9.15;52.00
72855;BME280;60991;51.278;22.550;2023-04-29T04:58:45;99173.84;;;9.19;51.80
72855;BME280;60991;51.278;22.550;2023-04-29T05:00:15;99178.69;;;9.22;52.00
72855;BME280;60991;51.278;22.550;2023-04-29T05:01:45;99184.22;;;9.20;51.82
72855;BME280;60991;51.278;22.550;2023-04-29T05:03:16;99180.88;;;9.25;51.73
72855;BME280;60991;51.278;22.550;2023-04-29T05:04:46;99184.41;;;9.30;51.48
72855;BME280;60991;51.278;22.550;2023-04-29T05:06:16;99182.09;;;9.34;51.82
72855;BME280;60991;51.278;22.550;2023-04-29T05:07:46;99187.19;;;9.35;51.89
72855;BME280;60991;51.278;22.550;2023-04-29T05:09:17;99184.28;;;9.37;51.50
72855;BME280;60991;51.278;22.550;2023-04-29T05:10:47;99184.63;;;9.41;51.58
72855;BME280;60991;51.278;22.550;2023-04-29T05:12:17;99174.97;;;9.46;51.79
72855;BME280;60991;51.278;22.550;2023-04-29T05:13:48;99176.31;;;9.49;51.57
72855;BME280;60991;51.278;22.550;2023-04-29T05:15:18;99177.44;;;9.53;51.35
72855;BME280;60991;51.278;22.550;2023-04-29T05:16:48;99170.88;;;9.55;51.46
72855;BME280;60991;51.278;22.550;2023-04-29T05:18:18;99173.66;;;9.49;51.63
72855;BME280;60991;51.278;22.550;2023-04-29T05:19:48;99172.16;;;9.53;51.62
72855;BME280;60991;51.278;22.550;2023-04-29T05:21:19;99175.38;;;9.55;51.65
72855;BME280;60991;51.278;22.550;2023-04-29T05:22:49;99178.13;;;9.60;51.43
72855;BME280;60991;51.278;22.550;2023-04-29T05:24:19;99175.56;;;9.65;51.49
72855;BME280;60991;51.278;22.550;2023-04-29T05:25:50;99177.16;;;9.66;51.25
72855;BME280;60991;51.278;22.550;2023-04-29T05:27:20;99175.09;;;9.68;51.67
72855;BME280;60991;51.278;22.550;2023-04-29T05:28:51;99173.69;;;9.77;51.19
72855;BME280;60991;51.278;22.550;2023-04-29T05:30:21;99185.44;;;9.81;51.14
72855;BME280;60991;51.278;22.550;2023-04-29T05:31:51;99171.84;;;9.78;51.45
72855;BME280;60991;51.278;22.550;2023-04-29T05:33:22;99171.03;;;9.77;51.21
72855;BME280;60991;51.278;22.550;2023-04-29T05:34:52;99174.59;;;9.83;51.68
72855;BME280;60991;51.278;22.550;2023-04-29T05:36:22;99173.13;;;9.75;51.83
72855;BME280;60991;51.278;22.550;2023-04-29T05:37:52;99172.97;;;9.82;51.22
72855;BME280;60991;51.278;22.550;2023-04-29T05:39:22;99176.75;;;9.86;51.40
72855;BME280;60991;51.278;22.550;2023-04-29T05:40:54;99179.72;;;9.89;51.68
72855;BME280;60991;51.278;22.550;2023-04-29T05:42:25;99182.38;;;9.89;51.85
72855;BME280;60991;51.278;22.550;2023-04-29T05:43:55;99186.50;;;9.97;51.71
72855;BME280;60991;51.278;22.550;2023-04-29T05:45:25;99175.91;;;9.97;51.61
72855;BME280;60991;51.278;22.550;2023-04-29T05:46:55;99178.94;;;10.05;51.71
72855;BME280;60991;51.278;22.550;2023-04-29T05:48:25;99178.34;;;10.15;51.59
72855;BME280;60991;51.278;22.550;2023-04-29T05:49:56;99183.78;;;10.20;51.51
72855;BME280;60991;51.278;22.550;2023-04-29T05:51:26;99179.56;;;10.24;51.65
72855;BME280;60991;51.278;22.550;2023-04-29T05:52:56;99185.78;;;10.30;51.37
72855;BME280;60991;51.278;22.550;2023-04-29T05:54:26;99179.56;;;10.24;51.36
72855;BME280;60991;51.278;22.550;2023-04-29T05:55:56;99179.81;;;10.23;50.76
72855;BME280;60991;51.278;22.550;2023-04-29T05:57:27;99176.06;;;10.35;50.67
72855;BME280;60991;51.278;22.550;2023-04-29T05:58:57;99183.44;;;10.33;50.43
72855;BME280;60991;51.278;22.550;2023-04-29T06:00:27;99179.81;;;10.39;50.32
72855;BME280;60991;51.278;22.550;2023-04-29T06:02:00;99171.94;;;10.45;50.38
72855;BME280;60991;51.278;22.550;2023-04-29T06:03:31;99176.78;;;10.48;50.07
72855;BME280;60991;51.278;22.550;2023-04-29T06:05:01;99180.22;;;10.48;50.04
72855;BME280;60991;51.278;22.550;2023-04-29T06:06:31;99179.50;;;10.53;49.93
72855;BME280;60991;51.278;22.550;2023-04-29T06:08:01;99169.28;;;10.61;49.94
72855;BME280;60991;51.278;22.550;2023-04-29T06:09:31;99175.63;;;10.60;50.41
72855;BME280;60991;51.278;22.550;2023-04-29T06:11:02;99171.44;;;10.64;49.82
72855;BME280;60991;51.278;22.550;2023-04-29T06:12:32;99176.41;;;10.77;49.73
72855;BME280;60991;51.278;22.550;2023-04-29T06:14:02;99173.59;;;10.84;49.64
72855;BME280;60991;51.278;22.550;2023-04-29T06:15:32;99165.97;;;10.88;49.52
72855;BME280;60991;51.278;22.550;2023-04-29T06:17:03;99165.41;;;10.86;49.24
72855;BME280;60991;51.278;22.550;2023-04-29T06:18:33;99167.56;;;10.89;49.18
72855;BME280;60991;51.278;22.550;2023-04-29T06:20:03;99171.59;;;10.91;49.14
72855;BME280;60991;51.278;22.550;2023-04-29T06:21:34;99164.47;;;10.97;49.13
72855;BME280;60991;51.278;22.550;2023-04-29T06:23:04;99165.28;;;10.97;49.15
72855;BME280;60991;51.278;22.550;2023-04-29T06:24:34;99172.28;;;11.03;49.07
72855;BME280;60991;51.278;22.550;2023-04-29T06:26:04;99173.16;;;11.09;49.03
72855;BME280;60991;51.278;22.550;2023-04-29T06:27:35;99174.75;;;11.10;49.20
72855;BME280;60991;51.278;22.550;2023-04-29T06:29:05;99174.00;;;11.15;48.93
72855;BME280;60991;51.278;22.550;2023-04-29T06:30:35;99167.59;;;11.10;49.27
72855;BME280;60991;51.278;22.550;2023-04-29T06:32:05;99172.41;;;11.14;48.80
72855;BME280;60991;51.278;22.550;2023-04-29T06:33:35;99168.44;;;11.16;49.01
72855;BME280;60991;51.278;22.550;2023-04-29T06:35:06;99163.38;;;11.15;48.78
72855;BME280;60991;51.278;22.550;2023-04-29T06:36:36;99168.41;;;11.11;48.79
72855;BME280;60991;51.278;22.550;2023-04-29T06:38:06;99167.88;;;11.14;48.85
72855;BME280;60991;51.278;22.550;2023-04-29T06:39:36;99167.97;;;11.19;48.99
72855;BME280;60991;51.278;22.550;2023-04-29T06:41:07;99170.75;;;11.29;48.05
72855;BME280;60991;51.278;22.550;2023-04-29T06:42:37;99183.81;;;11.31;47.89
72855;BME280;60991;51.278;22.550;2023-04-29T06:44:07;99169.19;;;11.33;48.13
72855;BME280;60991;51.278;22.550;2023-04-29T06:45:37;99168.22;;;11.39;48.12
72855;BME280;60991;51.278;22.550;2023-04-29T06:47:07;99173.53;;;11.39;47.99
72855;BME280;60991;51.278;22.550;2023-04-29T06:48:38;99171.44;;;11.41;47.70
72855;BME280;60991;51.278;22.550;2023-04-29T06:50:08;99174.91;;;11.42;48.08
72855;BME280;60991;51.278;22.550;2023-04-29T06:51:38;99168.84;;;11.47;47.85
72855;BME280;60991;51.278;22.550;2023-04-29T06:53:09;99176.25;;;11.44;47.59
72855;BME280;60991;51.278;22.550;2023-04-29T06:54:39;99174.91;;;11.42;48.20
72855;BME280;60991;51.278;22.550;2023-04-29T06:56:09;99173.38;;;11.51;47.12
72855;BME280;60991;51.278;22.550;2023-04-29T06:57:39;99176.25;;;11.44;47.59
72855;BME280;60991;51.278;22.550;2023-04-29T06:59:09;99172.06;;;11.49;47.86
72855;BME280;60991;51.278;22.550;2023-04-29T07:00:43;99174.50;;;11.55;47.94
72855;BME280;60991;51.278;22.550;2023-04-29T07:02:13;99178.03;;;11.61;47.79
72855;BME280;60991;51.278;22.550;2023-04-29T07:03:44;99174.66;;;11.70;47.69
72855;BME280;60991;51.278;22.550;2023-04-29T07:05:14;99174.19;;;11.73;47.75
72855;BME280;60991;51.278;22.550;2023-04-29T07:06:44;99177.50;;;11.81;47.43
72855;BME280;60991;51.278;22.550;2023-04-29T07:08:14;99172.72;;;11.83;47.01
72855;BME280;60991;51.278;22.550;2023-04-29T07:09:45;99170.63;;;11.85;47.39
72855;BME280;60991;51.278;22.550;2023-04-29T07:11:15;99172.50;;;11.89;46.83
72855;BME280;60991;51.278;22.550;2023-04-29T07:12:45;99172.50;;;11.89;46.74
72855;BME280;60991;51.278;22.550;2023-04-29T07:14:15;99171.19;;;11.87;46.33
72855;BME280;60991;51.278;22.550;2023-04-29T07:15:45;99165.09;;;11.91;46.45
72855;BME280;60991;51.278;22.550;2023-04-29T07:17:16;99172.63;;;11.99;45.98
72855;BME280;60991;51.278;22.550;2023-04-29T07:18:46;99172.38;;;12.01;46.17
72855;BME280;60991;51.278;22.550;2023-04-29T07:20:17;99165.50;;;12.05;46.08
72855;BME280;60991;51.278;22.550;2023-04-29T07:21:47;99168.19;;;12.10;45.86
72855;BME280;60991;51.278;22.550;2023-04-29T07:23:17;99172.94;;;12.08;46.05
72855;BME280;60991;51.278;22.550;2023-04-29T07:24:47;99172.44;;;12.11;46.53
72855;BME280;60991;51.278;22.550;2023-04-29T07:26:18;99167.75;;;12.18;46.19
72855;BME280;60991;51.278;22.550;2023-04-29T07:27:48;99170.22;;;12.30;46.87
72855;BME280;60991;51.278;22.550;2023-04-29T07:29:18;99178.25;;;12.35;46.92
72855;BME280;60991;51.278;22.550;2023-04-29T07:30:48;99181.22;;;12.38;46.46
72855;BME280;60991;51.278;22.550;2023-04-29T07:32:18;99173.25;;;12.43;46.62
72855;BME280;60991;51.278;22.550;2023-04-29T07:33:49;99176.25;;;12.52;45.82
72855;BME280;60991;51.278;22.550;2023-04-29T07:35:19;99174.69;;;12.56;44.74
72855;BME280;60991;51.278;22.550;2023-04-29T07:36:49;99173.66;;;12.57;45.00
72855;BME280;60991;51.278;22.550;2023-04-29T07:38:19;99171.50;;;12.54;44.63
72855;BME280;60991;51.278;22.550;2023-04-29T07:39:50;99174.44;;;12.58;44.00
72855;BME280;60991;51.278;22.550;2023-04-29T07:41:20;99172.84;;;12.62;43.77
72855;BME280;60991;51.278;22.550;2023-04-29T07:42:50;99173.41;;;12.64;43.61
72855;BME280;60991;51.278;22.550;2023-04-29T07:44:21;99167.31;;;12.68;43.60
72855;BME280;60991;51.278;22.550;2023-04-29T07:45:51;99175.34;;;12.73;43.03
72855;BME280;60991;51.278;22.550;2023-04-29T07:47:21;99168.47;;;12.77;43.11
72855;BME280;60991;51.278;22.550;2023-04-29T07:48:51;99163.38;;;12.76;43.78
72855;BME280;60991;51.278;22.550;2023-04-29T07:50:21;99169.53;;;12.76;43.42
72855;BME280;60991;51.278;22.550;2023-04-29T07:51:52;99169.25;;;12.78;42.64
72855;BME280;60991;51.278;22.550;2023-04-29T07:53:22;99160.47;;;12.77;42.55
72855;BME280;60991;51.278;22.550;2023-04-29T07:54:52;99169.53;;;12.76;42.96
72855;BME280;60991;51.278;22.550;2023-04-29T07:56:22;99166.63;;;12.83;43.37
72855;BME280;60991;51.278;22.550;2023-04-29T07:57:52;99165.84;;;12.88;43.50
72855;BME280;60991;51.278;22.550;2023-04-29T07:59:23;99169.34;;;12.93;42.20
72855;BME280;60991;51.278;22.550;2023-04-29T08:00:53;99166.44;;;12.95;42.01
72855;BME280;60991;51.278;22.550;2023-04-29T08:02:23;99167.47;;;12.89;41.72
72855;BME280;60991;51.278;22.550;2023-04-29T08:03:54;99164.25;;;12.87;41.27